Time;durP1;ratioP1;P1;durP2;ratioP2;P2;SDS_P1;SDS_P2;PMS_P1;PMS_P2;Temp;Humidity;BMP_temperature;BMP_pressure;BME280_temperature;BME280_humidity;BME280_pressure;Samples;Min_cycle;Max_cycle;Signal;HPM_P1;HPM_P2
2022/04/01 00:00:48;;;;;;;29.85;20.05;;;4.30;99.90;;;;;;5035290;28;20496;-57
2022/04/01 00:03:13;;;;;;;25.98;18.48;;;4.30;99.90;;;;;;5035395;28;20384;-57
2022/04/01 00:05:40;;;;;;;28.88;18.45;;;4.30;99.90;;;;;;5043323;28;20516;-59
2022/04/01 00:08:05;;;;;;;23.55;16.80;;;4.20;99.90;;;;;;5042114;28;20037;-59
2022/04/01 00:10:31;;;;;;;21.08;16.35;;;4.20;99.90;;;;;;5032583;28;20033;-59
2022/04/01 00:12:57;;;;;;;22.92;15.73;;;4.20;99.90;;;;;;5035603;28;20029;-58
2022/04/01 00:15:22;;;;;;;25.20;16.83;;;4.20;99.90;;;;;;5033188;28;20033;-60
2022/04/01 00:17:48;;;;;;;24.92;16.48;;;4.20;99.90;;;;;;5048503;28;20040;-57
2022/04/01 00:20:14;;;;;;;20.05;15.00;;;4.10;99.90;;;;;;5030052;28;20034;-53
2022/04/01 00:22:41;;;;;;;20.40;15.05;;;4.10;99.90;;;;;;5042910;28;20033;-56
2022/04/01 00:25:07;;;;;;;23.67;16.60;;;4.00;99.90;;;;;;5035435;28;20061;-56
2022/04/01 00:27:33;;;;;;;23.23;16.77;;;4.00;99.90;;;;;;5035094;28;20388;-58
2022/04/01 00:29:59;;;;;;;20.58;15.13;;;4.00;99.90;;;;;;5035044;28;20035;-56
2022/04/01 00:32:24;;;;;;;20.58;14.82;;;4.00;99.90;;;;;;5045757;28;20021;-57
2022/04/01 00:34:52;;;;;;;20.13;14.27;;;3.90;99.90;;;;;;5041487;28;20025;-59
2022/04/01 00:37:18;;;;;;;17.33;13.23;;;3.90;99.90;;;;;;5020802;28;20033;-57
2022/04/01 00:39:44;;;;;;;18.50;13.73;;;4.00;99.90;;;;;;5044271;28;20029;-58
2022/04/01 00:42:11;;;;;;;16.65;12.73;;;3.90;99.90;;;;;;5024478;28;20041;-57
2022/04/01 00:44:38;;;;;;;19.73;13.88;;;3.90;99.90;;;;;;5046892;28;20087;-56
2022/04/01 00:47:12;;;;;;;19.67;13.60;;;3.90;99.90;;;;;;5052042;28;20023;-57
2022/04/01 00:49:39;;;;;;;17.73;13.20;;;3.90;99.90;;;;;;5040597;28;20028;-56
2022/04/01 00:52:07;;;;;;;17.15;13.23;;;3.90;99.90;;;;;;5037594;28;20757;-56
2022/04/01 00:54:35;;;;;;;15.82;12.15;;;3.90;99.90;;;;;;5042484;28;20029;-58
2022/04/01 00:57:02;;;;;;;16.50;13.15;;;3.90;99.90;;;;;;5043647;28;20045;-59
2022/04/01 00:59:28;;;;;;;17.13;13.52;;;3.90;99.90;;;;;;5050138;28;20033;-56
2022/04/01 01:01:53;;;;;;;17.67;12.23;;;3.90;99.90;;;;;;5041279;28;20037;-59
2022/04/01 01:04:20;;;;;;;18.70;12.13;;;3.80;99.90;;;;;;5044412;28;20455;-55
2022/04/01 01:06:51;;;;;;;17.55;13.05;;;3.80;99.90;;;;;;5040713;28;20076;-57
2022/04/01 01:09:18;;;;;;;15.35;11.90;;;3.80;99.90;;;;;;5035018;28;20080;-54
2022/04/01 01:11:49;;;;;;;16.33;13.13;;;3.80;99.90;;;;;;5045125;28;20572;-58
2022/04/01 01:14:16;;;;;;;17.65;13.27;;;3.80;99.90;;;;;;5046171;28;20025;-58
2022/04/01 01:16:44;;;;;;;17.48;13.25;;;3.80;99.90;;;;;;5046712;28;20593;-54
2022/04/01 01:19:12;;;;;;;17.45;13.77;;;3.90;99.90;;;;;;5045016;28;20029;-57
2022/04/01 01:21:40;;;;;;;17.50;13.30;;;3.90;99.90;;;;;;5041084;28;20645;-57
2022/04/01 01:24:08;;;;;;;18.25;14.25;;;3.90;99.90;;;;;;5047725;28;20079;-58
2022/04/01 01:26:36;;;;;;;20.52;14.35;;;3.80;99.90;;;;;;5036498;28;20029;-54
2022/04/01 01:29:05;;;;;;;17.20;12.65;;;3.80;99.90;;;;;;5037275;28;20049;-55
2022/04/01 01:31:30;;;;;;;17.77;13.02;;;3.80;99.90;;;;;;5040247;28;20071;-51
2022/04/01 01:33:58;;;;;;;16.40;12.00;;;3.80;99.90;;;;;;5039178;28;20033;-56
2022/04/01 01:36:27;;;;;;;15.85;11.95;;;3.80;99.90;;;;;;5032779;28;20034;-53
2022/04/01 01:38:53;;;;;;;14.30;11.57;;;3.80;99.90;;;;;;5043803;28;20032;-58
2022/04/01 01:41:19;;;;;;;14.18;11.40;;;3.80;99.90;;;;;;5025952;28;20037;-58
2022/04/01 01:43:45;;;;;;;13.82;10.50;;;3.70;99.90;;;;;;5042890;28;20072;-58
2022/04/01 01:46:11;;;;;;;10.70;8.98;;;3.70;99.90;;;;;;5050020;28;20407;-56
2022/04/01 01:48:36;;;;;;;12.00;9.20;;;3.70;99.90;;;;;;5046958;28;20120;-51
2022/04/01 01:56:31;;;;;;;11.32;8.90;;;3.50;99.90;;;;;;5033081;28;20048;-56
2022/04/01 01:58:57;;;;;;;11.00;9.05;;;3.50;99.90;;;;;;5036950;28;20037;-54
2022/04/01 02:01:23;;;;;;;10.80;8.43;;;3.50;99.90;;;;;;5040975;28;20106;-58
2022/04/01 02:03:49;;;;;;;10.48;8.93;;;3.50;99.90;;;;;;5038321;28;20436;-58
2022/04/01 02:06:15;;;;;;;9.60;8.10;;;3.50;99.90;;;;;;5043603;28;20623;-58
2022/04/01 02:08:41;;;;;;;10.13;8.55;;;3.40;99.90;;;;;;5043925;28;20096;-50
2022/04/01 02:11:07;;;;;;;10.45;8.48;;;3.30;99.90;;;;;;5036154;28;20021;-58
2022/04/01 02:13:34;;;;;;;10.07;8.25;;;3.30;99.90;;;;;;5037802;28;20025;-52
2022/04/01 02:16:00;;;;;;;9.20;7.63;;;3.40;99.90;;;;;;5041177;28;20439;-54
2022/04/01 02:18:26;;;;;;;9.07;8.00;;;3.40;99.90;;;;;;5038038;28;20079;-56
2022/04/01 02:20:52;;;;;;;9.93;7.75;;;3.30;99.90;;;;;;5041757;28;20431;-58
2022/04/01 02:23:17;;;;;;;9.77;7.72;;;3.30;99.90;;;;;;5042697;28;20104;-56
2022/04/01 02:25:43;;;;;;;9.27;7.60;;;3.30;99.90;;;;;;5042439;28;20029;-57
2022/04/01 02:28:12;;;;;;;8.80;6.70;;;3.30;99.90;;;;;;5041333;28;20025;-57
2022/04/01 02:30:38;;;;;;;8.82;6.95;;;3.20;99.90;;;;;;5041122;28;20024;-55
2022/04/01 02:33:06;;;;;;;9.02;7.32;;;3.20;99.90;;;;;;5035651;28;20029;-57
2022/04/01 02:35:33;;;;;;;10.43;6.97;;;3.20;99.90;;;;;;5036827;28;20031;-54
2022/04/01 02:37:59;;;;;;;9.27;7.53;;;3.20;99.90;;;;;;5033177;28;20041;-57
2022/04/01 02:40:24;;;;;;;8.88;6.45;;;3.20;99.90;;;;;;5032429;28;20041;-58
2022/04/01 02:42:53;;;;;;;10.23;7.68;;;3.20;99.90;;;;;;5024010;28;20048;-58
2022/04/01 02:45:24;;;;;;;8.77;7.10;;;3.10;99.90;;;;;;5041578;28;20059;-58
2022/04/01 02:47:50;;;;;;;7.97;6.68;;;3.10;99.90;;;;;;5037233;28;20527;-57
2022/04/01 02:50:15;;;;;;;8.50;6.95;;;3.10;99.90;;;;;;5044923;28;20037;-54
2022/04/01 02:52:41;;;;;;;9.05;7.13;;;3.10;99.90;;;;;;5041798;28;20090;-53
2022/04/01 02:55:07;;;;;;;9.02;6.93;;;3.10;99.90;;;;;;5040694;28;20050;-56
2022/04/01 02:57:33;;;;;;;8.35;6.78;;;3.10;99.90;;;;;;5037786;28;20029;-55
2022/04/01 02:59:59;;;;;;;8.50;6.25;;;3.00;99.90;;;;;;5042779;28;20017;-55
2022/04/01 03:02:25;;;;;;;8.20;6.55;;;3.10;99.90;;;;;;5031211;28;20036;-56
2022/04/01 03:04:50;;;;;;;10.18;6.93;;;3.00;99.90;;;;;;5031735;28;20025;-55
2022/04/01 03:07:16;;;;;;;9.00;6.65;;;3.00;99.90;;;;;;5036596;28;20083;-59
2022/04/01 03:09:42;;;;;;;9.55;6.85;;;3.00;99.90;;;;;;5030534;28;20080;-56
2022/04/01 03:12:08;;;;;;;10.30;7.03;;;2.90;99.90;;;;;;5044817;28;20025;-56
2022/04/01 03:14:33;;;;;;;8.65;7.00;;;2.90;99.90;;;;;;5044350;28;20408;-57
2022/04/01 03:16:59;;;;;;;8.70;6.47;;;2.90;99.90;;;;;;5037207;28;20029;-56
2022/04/01 03:19:28;;;;;;;8.95;6.75;;;2.90;99.90;;;;;;5037681;28;20029;-57
2022/04/01 03:21:54;;;;;;;9.77;7.18;;;2.90;99.90;;;;;;5042276;28;20041;-56
2022/04/01 03:24:20;;;;;;;10.63;7.20;;;2.90;99.90;;;;;;5042393;28;20108;-56
2022/04/01 03:26:46;;;;;;;8.85;6.93;;;3.00;99.90;;;;;;5047825;28;20044;-52
2022/04/01 03:29:11;;;;;;;9.85;6.97;;;2.90;99.90;;;;;;5046433;28;20057;-54
2022/04/01 03:31:37;;;;;;;10.88;7.78;;;2.90;99.90;;;;;;5038269;28;20507;-57
2022/04/01 03:34:04;;;;;;;10.25;7.35;;;2.80;99.90;;;;;;5031129;28;20029;-56
2022/04/01 03:36:31;;;;;;;10.40;7.03;;;2.80;99.90;;;;;;5034626;28;20018;-50
2022/04/01 03:38:56;;;;;;;11.15;6.45;;;2.80;99.90;;;;;;5034485;28;20030;-54
2022/04/01 03:41:23;;;;;;;10.68;6.85;;;2.90;99.90;;;;;;5030080;28;20033;-56
2022/04/01 03:43:51;;;;;;;9.60;6.53;;;2.90;99.90;;;;;;5014912;28;20049;-57
2022/04/01 03:46:20;;;;;;;10.32;6.43;;;2.80;99.90;;;;;;5043056;28;20025;-53
2022/04/01 03:48:55;;;;;;;11.27;6.10;;;2.80;99.90;;;;;;5033043;28;20462;-52
2022/04/01 03:51:25;;;;;;;9.82;6.63;;;2.80;99.90;;;;;;5040661;28;20056;-57
2022/04/01 03:54:01;;;;;;;9.07;6.43;;;2.80;99.90;;;;;;5030799;28;20050;-55
2022/04/01 03:56:35;;;;;;;8.05;5.72;;;2.70;99.90;;;;;;5032883;28;20029;-58
2022/04/01 03:59:12;;;;;;;9.45;6.07;;;2.70;99.90;;;;;;5029879;28;20030;-54
2022/04/01 04:01:38;;;;;;;11.23;6.15;;;2.70;99.90;;;;;;5029982;28;20029;-53
2022/04/01 04:04:05;;;;;;;9.98;6.20;;;2.70;99.90;;;;;;5029873;28;20536;-57
2022/04/01 04:06:34;;;;;;;8.68;5.82;;;2.70;99.90;;;;;;5049343;28;20029;-55
2022/04/01 04:09:01;;;;;;;10.02;5.65;;;2.70;99.90;;;;;;5035117;28;20083;-56
2022/04/01 04:11:33;;;;;;;10.13;5.15;;;2.60;99.90;;;;;;5034168;28;20014;-58
2022/04/01 04:14:00;;;;;;;8.85;5.85;;;2.60;99.90;;;;;;5038280;28;20041;-56
2022/04/01 04:16:36;;;;;;;9.18;5.78;;;2.60;99.90;;;;;;5042008;28;20028;-56
2022/04/01 04:19:39;;;;;;;9.27;5.68;;;2.60;99.90;;;;;;5042357;28;20060;-56
2022/04/01 04:22:04;;;;;;;11.93;5.03;;;2.60;99.90;;;;;;5044256;28;20036;-57
2022/04/01 04:24:34;;;;;;;10.50;6.20;;;2.60;99.90;;;;;;5041665;28;20392;-56
2022/04/01 04:27:25;;;;;;;8.70;5.72;;;2.60;99.90;;;;;;5035232;28;20463;-58
2022/04/01 04:29:52;;;;;;;10.52;5.88;;;2.50;99.90;;;;;;5033822;28;20033;-56
2022/04/01 04:32:46;;;;;;;9.32;5.55;;;2.50;99.90;;;;;;5040091;28;20556;-58
2022/04/01 04:35:12;;;;;;;12.80;5.33;;;2.50;99.90;;;;;;5041883;28;20022;-57
2022/04/01 04:37:47;;;;;;;10.57;6.03;;;2.50;99.90;;;;;;5033277;28;20048;-57
2022/04/01 04:40:17;;;;;;;8.35;5.60;;;2.50;99.90;;;;;;5038542;28;20392;-55
2022/04/01 04:42:45;;;;;;;8.93;5.57;;;2.50;99.90;;;;;;5051469;28;20033;-56
2022/04/01 04:45:12;;;;;;;9.77;5.50;;;2.40;99.90;;;;;;5030362;28;20163;-57
2022/04/01 04:47:41;;;;;;;7.57;5.55;;;2.50;99.90;;;;;;5041429;28;20024;-58
2022/04/01 04:50:08;;;;;;;7.78;5.68;;;2.40;99.90;;;;;;5036353;28;20033;-58
2022/04/01 04:52:34;;;;;;;8.43;5.78;;;2.40;99.90;;;;;;5038325;28;20057;-57
2022/04/01 04:55:01;;;;;;;8.23;5.72;;;2.40;99.90;;;;;;5036273;28;20044;-55
2022/04/01 04:57:27;;;;;;;9.52;5.60;;;2.40;99.90;;;;;;5043969;28;20033;-56
2022/04/01 04:59:56;;;;;;;7.20;5.40;;;2.40;99.90;;;;;;5041430;28;20562;-54
2022/04/01 05:02:33;;;;;;;9.55;5.97;;;2.30;99.90;;;;;;5046136;28;20021;-57
2022/04/01 05:05:11;;;;;;;9.20;6.22;;;2.30;99.90;;;;;;5043562;28;20376;-58
2022/04/01 05:07:57;;;;;;;7.78;5.80;;;2.30;99.90;;;;;;5038118;28;20029;-58
2022/04/01 05:10:30;;;;;;;9.25;6.47;;;2.30;99.90;;;;;;5038085;28;20028;-53
2022/04/01 05:13:17;;;;;;;9.48;5.75;;;2.30;99.90;;;;;;5044876;28;20025;-52
2022/04/01 05:15:50;;;;;;;8.45;5.90;;;2.20;99.90;;;;;;5043822;28;20036;-56
2022/04/01 05:18:34;;;;;;;10.48;6.70;;;2.20;99.90;;;;;;5040170;28;20029;-57
2022/04/01 05:21:04;;;;;;;9.48;6.55;;;2.20;99.90;;;;;;5043361;28;20112;-55
2022/04/01 05:23:48;;;;;;;8.30;6.32;;;2.20;99.90;;;;;;5039056;28;20022;-55
2022/04/01 05:26:20;;;;;;;10.77;6.30;;;2.10;99.90;;;;;;5043104;28;20024;-56
2022/04/01 05:28:51;;;;;;;10.35;7.13;;;2.20;99.90;;;;;;5041688;28;20029;-53
2022/04/01 05:31:25;;;;;;;9.73;6.53;;;2.20;99.90;;;;;;5044768;28;20116;-56
2022/04/01 05:33:53;;;;;;;;;;;2.10;99.90;;;;;;5035890;28;20093;-55
2022/04/01 05:36:19;;;;;;;10.43;6.00;;;2.10;99.90;;;;;;5036166;28;19909;-57
2022/04/01 05:38:47;;;;;;;9.70;6.43;;;2.10;99.90;;;;;;5041650;28;20052;-52
2022/04/01 05:41:19;;;;;;;8.80;6.22;;;2.10;99.90;;;;;;5033081;28;20393;-56
2022/04/01 05:43:48;;;;;;;9.23;6.47;;;2.10;99.90;;;;;;5026482;28;20049;-55
2022/04/01 05:46:15;;;;;;;11.02;6.72;;;2.10;99.90;;;;;;5033956;28;20025;-52
2022/04/01 05:48:42;;;;;;;12.38;6.60;;;2.10;99.90;;;;;;5032908;28;20043;-56
2022/04/01 05:51:13;;;;;;;9.15;5.90;;;2.10;99.90;;;;;;5035410;28;20017;-55
2022/04/01 05:53:39;;;;;;;9.65;6.85;;;2.00;99.90;;;;;;5031708;28;20034;-55
2022/04/01 05:56:07;;;;;;;10.90;6.72;;;2.00;99.90;;;;;;5049448;28;20057;-56
2022/04/01 05:58:33;;;;;;;11.15;5.57;;;2.10;99.90;;;;;;5047743;28;20024;-54
2022/04/01 06:01:35;;;;;;;9.18;6.03;;;2.10;99.90;;;;;;5041630;28;20559;-52
2022/04/01 06:04:38;;;;;;;8.55;6.07;;;2.10;99.90;;;;;;5039646;28;20043;-57
2022/04/01 06:07:12;;;;;;;8.73;5.50;;;2.10;99.90;;;;;;5032243;28;20029;-56
2022/04/01 06:10:13;;;;;;;8.27;5.85;;;2.10;99.90;;;;;;5032670;28;20025;-54
2022/04/01 06:13:08;;;;;;;9.23;5.70;;;2.10;99.90;;;;;;5034781;28;20032;-57
2022/04/01 06:16:02;;;;;;;6.82;4.35;;;2.10;99.90;;;;;;5042163;28;20028;-58
2022/04/01 06:19:01;;;;;;;11.90;5.30;;;2.00;99.90;;;;;;5042046;28;20572;-55
2022/04/01 06:21:27;;;;;;;10.05;5.20;;;2.00;99.90;;;;;;5034497;28;20022;-58
2022/04/01 06:24:16;;;;;;;10.98;4.47;;;2.10;99.90;;;;;;5038031;28;20453;-54
2022/04/01 06:26:56;;;;;;;9.85;4.97;;;2.10;99.90;;;;;;5043693;28;21663;-57
2022/04/01 06:29:31;;;;;;;5.93;4.07;;;2.10;99.90;;;;;;5036336;28;20492;-59
2022/04/01 06:32:05;;;;;;;8.85;4.60;;;2.00;99.90;;;;;;5049364;28;20032;-56
2022/04/01 06:34:49;;;;;;;7.13;4.30;;;2.00;99.90;;;;;;5038021;28;20041;-59
2022/04/01 06:37:27;;;;;;;6.75;4.75;;;2.00;99.90;;;;;;5037189;28;20106;-52
2022/04/01 06:40:07;;;;;;;6.85;4.10;;;1.90;99.90;;;;;;5038001;28;20461;-53
2022/04/01 06:42:37;;;;;;;6.03;4.45;;;2.00;99.90;;;;;;5034424;28;20022;-57
2022/04/01 06:45:06;;;;;;;6.35;4.43;;;1.90;99.90;;;;;;5028491;28;20037;-57
2022/04/01 06:47:32;;;;;;;7.90;4.85;;;1.90;99.90;;;;;;5045431;28;20053;-54
2022/04/01 06:49:57;;;;;;;6.78;4.80;;;1.90;99.90;;;;;;5032682;28;20053;-56
2022/04/01 06:52:25;;;;;;;7.82;4.93;;;1.90;99.90;;;;;;5031124;28;20059;-49
2022/04/01 06:54:51;;;;;;;7.13;4.40;;;2.00;99.90;;;;;;5029698;28;20031;-55
2022/04/01 06:57:17;;;;;;;6.22;4.03;;;2.00;99.90;;;;;;5022860;28;20102;-56
2022/04/01 06:59:43;;;;;;;9.77;5.22;;;2.10;99.90;;;;;;5040142;28;20056;-58
2022/04/01 07:02:09;;;;;;;6.82;4.03;;;2.10;99.90;;;;;;5040951;28;20041;-57
2022/04/01 07:04:34;;;;;;;13.45;3.95;;;2.10;99.90;;;;;;5030895;28;20424;-56
2022/04/01 07:07:00;;;;;;;5.57;4.00;;;2.20;99.90;;;;;;5043970;28;20025;-53
2022/04/01 07:09:26;;;;;;;7.18;4.32;;;2.20;99.90;;;;;;5042540;28;20391;-51
2022/04/01 07:11:53;;;;;;;5.95;3.83;;;2.20;99.90;;;;;;5029697;28;20115;-50
2022/04/01 07:14:19;;;;;;;6.57;3.67;;;2.10;99.90;;;;;;5035950;28;20025;-51
2022/04/01 07:16:44;;;;;;;5.75;3.75;;;2.10;99.90;;;;;;5037803;28;20060;-57
2022/04/01 07:19:11;;;;;;;4.57;3.47;;;2.20;99.90;;;;;;5034085;28;20025;-52
2022/04/01 07:21:36;;;;;;;4.13;3.05;;;2.20;99.90;;;;;;5045233;28;20075;-51
2022/04/01 07:24:02;;;;;;;4.78;3.20;;;2.20;99.90;;;;;;5023111;28;20032;-56
2022/04/01 07:26:28;;;;;;;4.90;3.53;;;2.20;99.90;;;;;;5039165;28;20052;-49
2022/04/01 07:28:55;;;;;;;5.30;3.75;;;2.20;99.90;;;;;;5036075;28;20017;-54
2022/04/01 07:34:07;;;;;;;5.15;3.15;;;2.40;99.90;;;;;;5040778;28;20119;-57
2022/04/01 07:36:33;;;;;;;4.50;2.97;;;2.40;99.90;;;;;;5037544;28;20155;-56
2022/04/01 07:38:59;;;;;;;4.93;3.03;;;2.50;99.90;;;;;;5039381;28;20049;-56
2022/04/01 07:41:27;;;;;;;4.72;2.83;;;2.50;99.90;;;;;;5045921;28;20068;-53
2022/04/01 07:43:53;;;;;;;4.85;3.20;;;2.50;99.90;;;;;;5035144;28;20047;-55
2022/04/01 07:46:19;;;;;;;5.00;2.92;;;2.50;99.90;;;;;;5034670;28;20809;-57
2022/04/01 07:48:44;;;;;;;3.95;2.83;;;2.50;99.90;;;;;;5040072;28;20025;-56
2022/04/01 07:51:10;;;;;;;5.57;3.40;;;2.50;99.90;;;;;;5049669;28;20404;-56
2022/04/01 07:53:35;;;;;;;4.25;3.00;;;2.60;99.90;;;;;;5047698;28;20492;-57
2022/04/01 07:56:01;;;;;;;4.38;3.13;;;2.50;99.90;;;;;;5049555;28;20033;-56
2022/04/01 07:58:26;;;;;;;5.28;3.20;;;2.50;99.90;;;;;;5047857;28;20029;-55
2022/04/01 08:00:52;;;;;;;3.78;2.65;;;2.50;99.90;;;;;;5049739;28;20033;-55
2022/04/01 08:03:18;;;;;;;5.85;3.35;;;2.60;99.90;;;;;;5042537;28;20052;-57
2022/04/01 08:05:43;;;;;;;5.70;3.55;;;2.60;99.90;;;;;;5040089;28;20025;-57
2022/04/01 08:08:09;;;;;;;4.07;2.67;;;2.60;99.90;;;;;;5039922;28;20025;-57
2022/04/01 08:10:35;;;;;;;4.20;2.92;;;2.80;99.90;;;;;;5034096;28;20058;-53
2022/04/01 08:13:00;;;;;;;4.00;2.83;;;2.80;99.90;;;;;;5029848;28;20480;-57
2022/04/01 08:15:26;;;;;;;3.45;2.45;;;2.80;99.90;;;;;;5036874;28;20060;-57
2022/04/01 08:17:55;;;;;;;4.28;2.60;;;2.90;99.90;;;;;;5030227;28;20070;-57
2022/04/01 08:20:22;;;;;;;3.60;2.70;;;2.90;99.90;;;;;;5035164;28;20047;-55
2022/04/01 08:22:48;;;;;;;4.03;2.70;;;3.00;99.90;;;;;;5034547;28;20125;-51
2022/04/01 08:25:13;;;;;;;3.13;2.22;;;3.00;99.90;;;;;;5048945;28;20634;-51
2022/04/01 08:27:39;;;;;;;4.25;2.65;;;3.00;99.90;;;;;;5043869;28;20037;-51
2022/04/01 08:30:05;;;;;;;4.53;2.75;;;3.00;99.90;;;;;;5028574;28;20025;-55
2022/04/01 08:32:32;;;;;;;4.15;2.35;;;3.10;99.90;;;;;;5030109;28;20021;-58
2022/04/01 08:34:58;;;;;;;4.28;2.67;;;3.10;99.90;;;;;;5035212;28;20052;-55
2022/04/01 08:37:24;;;;;;;12.23;4.60;;;3.20;99.90;;;;;;5043765;28;20484;-56
2022/04/01 08:39:49;;;;;;;7.50;4.18;;;3.20;99.90;;;;;;5048664;28;20036;-52
2022/04/01 08:42:15;;;;;;;6.72;3.65;;;3.30;99.90;;;;;;5038813;28;20488;-55
2022/04/01 08:44:45;;;;;;;11.48;5.18;;;3.60;99.90;;;;;;5019180;28;20110;-57
2022/04/01 08:47:10;;;;;;;6.50;3.75;;;3.90;99.90;;;;;;5030728;28;20025;-60
2022/04/01 08:49:36;;;;;;;7.28;3.72;;;4.00;99.90;;;;;;5037264;28;20095;-54
2022/04/01 08:52:04;;;;;;;5.63;2.80;;;4.10;99.90;;;;;;5032041;28;20055;-55
2022/04/01 08:54:34;;;;;;;6.68;3.35;;;4.00;99.90;;;;;;5052188;28;20044;-54
2022/04/01 08:57:00;;;;;;;6.38;3.55;;;3.90;99.90;;;;;;5046877;28;20519;-57
2022/04/01 08:59:29;;;;;;;7.82;3.85;;;3.90;99.90;;;;;;5045980;28;20040;-56
2022/04/01 09:02:09;;;;;;;5.75;3.65;;;3.90;99.90;;;;;;5050896;28;20404;-58
2022/04/01 09:04:36;;;;;;;4.30;2.60;;;3.80;99.90;;;;;;5042922;28;20021;-55
2022/04/01 09:07:15;;;;;;;3.95;1.98;;;3.80;99.90;;;;;;5038707;28;20026;-58
2022/04/01 09:09:41;;;;;;;3.70;2.65;;;3.80;99.70;;;;;;5032590;28;20030;-54
2022/04/01 09:12:11;;;;;;;6.38;2.60;;;3.90;99.90;;;;;;5033731;28;20033;-54
2022/04/01 09:14:38;;;;;;;4.75;3.05;;;4.00;99.90;;;;;;5051890;28;20191;-56
2022/04/01 09:17:10;;;;;;;3.70;2.55;;;4.00;99.60;;;;;;5046523;28;20053;-57
2022/04/01 09:19:38;;;;;;;5.53;3.17;;;3.90;99.90;;;;;;5034911;28;20030;-54
2022/04/01 09:22:18;;;;;;;4.20;2.42;;;3.90;99.90;;;;;;5050640;28;20458;-58
2022/04/01 09:25:05;;;;;;;4.07;2.78;;;3.90;99.30;;;;;;5039534;28;20108;-56
2022/04/01 09:27:51;;;;;;;4.05;2.55;;;3.70;99.80;;;;;;5042410;28;20488;-55
2022/04/01 09:30:26;;;;;;;3.55;2.33;;;3.90;99.90;;;;;;5042565;28;20024;-56
2022/04/01 09:32:55;;;;;;;4.55;2.80;;;4.00;99.90;;;;;;5043357;28;20025;-55
2022/04/01 09:35:24;;;;;;;3.63;2.47;;;4.00;99.90;;;;;;5035446;28;20037;-57
2022/04/01 09:37:57;;;;;;;4.32;2.75;;;4.00;99.90;;;;;;5036024;28;20017;-56
2022/04/01 09:40:23;;;;;;;3.40;2.20;;;3.80;99.90;;;;;;5036522;28;20017;-57
2022/04/01 09:42:50;;;;;;;4.85;3.25;;;3.60;99.90;;;;;;5040866;28;20105;-49
2022/04/01 09:45:21;;;;;;;5.28;3.33;;;3.50;99.90;;;;;;5023421;28;20064;-53
2022/04/01 09:48:04;;;;;;;7.57;4.22;;;3.40;99.90;;;;;;5039691;28;20532;-55
2022/04/01 09:50:58;;;;;;;8.05;3.17;;;3.40;99.90;;;;;;5047149;28;20021;-54
2022/04/01 09:53:25;;;;;;;3.90;2.60;;;3.20;99.90;;;;;;5026850;28;20405;-56
2022/04/01 09:55:52;;;;;;;8.23;5.13;;;3.20;99.90;;;;;;5040029;28;20032;-60
2022/04/01 09:58:20;;;;;;;3.90;2.58;;;3.20;99.90;;;;;;5039609;28;20021;-57
2022/04/01 10:00:46;;;;;;;9.48;4.68;;;3.20;99.90;;;;;;5048058;28;20075;-56
2022/04/01 10:03:14;;;;;;;3.78;2.60;;;3.10;99.90;;;;;;5044888;28;20033;-56
2022/04/01 10:05:41;;;;;;;5.78;3.33;;;3.10;99.90;;;;;;5048690;28;20111;-56
2022/04/01 10:08:09;;;;;;;6.85;4.05;;;2.90;99.90;;;;;;5046545;28;20029;-57
2022/04/01 10:10:35;;;;;;;3.90;2.80;;;2.90;99.90;;;;;;5040052;28;20071;-54
2022/04/01 10:13:10;;;;;;;4.43;2.05;;;2.90;99.90;;;;;;5039070;28;20484;-55
2022/04/01 10:15:37;;;;;;;4.13;2.70;;;3.00;99.90;;;;;;5039695;28;20033;-55
2022/04/01 10:18:03;;;;;;;3.47;2.53;;;2.90;99.90;;;;;;5038561;28;20028;-55
2022/04/01 10:20:35;;;;;;;3.35;2.35;;;2.90;99.90;;;;;;5035675;28;20076;-54
2022/04/01 10:23:04;;;;;;;3.67;2.22;;;3.00;99.90;;;;;;5042771;28;20030;-55
2022/04/01 10:25:36;;;;;;;2.88;2.20;;;3.00;99.90;;;;;;5037267;28;20032;-55
2022/04/01 10:28:04;;;;;;;3.60;2.55;;;3.10;99.90;;;;;;5038014;28;20025;-57
2022/04/01 10:30:35;;;;;;;5.97;2.97;;;3.20;99.90;;;;;;5036364;28;20373;-58
2022/04/01 10:33:06;;;;;;;6.75;2.75;;;3.10;99.90;;;;;;5044388;28;20047;-57
2022/04/01 10:35:38;;;;;;;4.07;2.67;;;3.10;99.90;;;;;;5040825;28;20067;-53
2022/04/01 10:38:06;;;;;;;3.78;2.25;;;3.00;99.90;;;;;;5040023;28;20028;-55
2022/04/01 10:40:37;;;;;;;4.20;2.67;;;3.00;99.90;;;;;;5039780;28;20079;-58
2022/04/01 10:43:30;;;;;;;3.22;2.13;;;2.90;99.90;;;;;;5039329;28;20635;-56
2022/04/01 10:46:19;;;;;;;3.13;2.25;;;2.80;99.90;;;;;;5016661;28;20085;-59
2022/04/01 10:52:13;;;;;;;3.88;2.38;;;3.00;99.90;;;;;;5042007;28;20036;-58
2022/04/01 10:54:43;;;;;;;2.63;1.92;;;3.20;99.90;;;;;;5042011;28;20033;-58
2022/04/01 10:57:29;;;;;;;3.42;2.35;;;3.30;99.90;;;;;;5041184;28;20025;-57
2022/04/01 10:59:59;;;;;;;3.13;1.67;;;3.40;99.90;;;;;;5044702;28;20137;-57
2022/04/01 11:02:25;;;;;;;2.92;2.03;;;3.50;99.90;;;;;;5038671;28;20033;-57
2022/04/01 11:04:52;;;;;;;3.80;2.15;;;3.40;99.90;;;;;;5042113;28;20531;-48
2022/04/01 11:07:23;;;;;;;2.17;1.75;;;3.40;99.90;;;;;;5036153;28;20013;-55
2022/04/01 11:09:51;;;;;;;2.38;1.90;;;3.30;99.90;;;;;;5038699;28;20021;-56
2022/04/01 11:12:21;;;;;;;4.13;2.30;;;3.20;99.90;;;;;;5034303;28;20040;-53
2022/04/01 11:15:07;;;;;;;5.97;1.92;;;3.20;99.90;;;;;;5036513;28;20027;-54
2022/04/01 11:17:44;;;;;;;3.47;2.05;;;3.20;99.90;;;;;;5038963;28;20426;-57
2022/04/01 11:20:18;;;;;;;2.63;1.77;;;3.10;99.90;;;;;;5038273;28;20024;-57
2022/04/01 11:22:45;;;;;;;;;;;3.10;99.90;;;;;;5034742;28;20025;-56
2022/04/01 11:25:33;;;;;;;4.57;2.10;;;3.20;99.90;;;;;;5045924;28;19916;-56
2022/04/01 11:27:59;;;;;;;2.78;2.00;;;3.30;99.90;;;;;;5040967;28;20021;-58
2022/04/01 11:30:26;;;;;;;2.90;1.70;;;3.40;99.90;;;;;;5040487;28;20044;-57
2022/04/01 11:32:54;;;;;;;1.85;1.60;;;3.30;99.90;;;;;;5044127;28;20539;-53
2022/04/01 11:35:25;;;;;;;3.90;1.98;;;3.30;99.90;;;;;;5042835;28;20036;-50
2022/04/01 11:37:51;;;;;;;2.15;1.27;;;3.20;99.90;;;;;;5048488;28;20059;-55
2022/04/01 11:40:25;;;;;;;2.15;1.67;;;3.20;99.90;;;;;;5048303;28;20037;-52
2022/04/01 11:43:02;;;;;;;2.70;1.70;;;3.20;99.90;;;;;;5043427;28;20116;-52
2022/04/01 11:45:30;;;;;;;2.25;1.88;;;3.30;99.90;;;;;;5015009;28;20783;-57
2022/04/01 11:47:57;;;;;;;2.78;1.90;;;3.30;99.90;;;;;;5034682;28;20037;-53
2022/04/01 11:50:24;;;;;;;5.80;2.53;;;3.50;99.90;;;;;;5035056;28;20026;-56
2022/04/01 11:52:54;;;;;;;4.85;1.58;;;3.60;99.90;;;;;;5037285;28;20119;-50
2022/04/01 11:55:21;;;;;;;3.13;1.83;;;3.70;99.80;;;;;;5040898;28;20025;-51
2022/04/01 11:57:47;;;;;;;3.45;2.30;;;3.60;99.10;;;;;;5043370;28;20060;-51
2022/04/01 12:00:18;;;;;;;14.57;5.03;;;3.50;98.90;;;;;;5035704;28;20116;-57
2022/04/01 12:02:46;;;;;;;2.55;1.58;;;3.50;99.90;;;;;;5036718;28;20037;-57
2022/04/01 12:05:12;;;;;;;4.43;2.60;;;3.40;99.90;;;;;;5042713;28;20017;-54
2022/04/01 12:10:24;;;;;;;3.65;2.35;;;3.10;99.90;;;;;;5039196;28;20047;-56
2022/04/01 12:12:58;;;;;;;3.00;2.22;;;3.00;99.90;;;;;;5037589;28;20040;-55
2022/04/01 12:15:36;;;;;;;3.95;2.42;;;2.90;99.90;;;;;;5035826;28;20030;-57
2022/04/01 12:18:05;;;;;;;3.55;1.70;;;2.90;99.90;;;;;;5039278;28;20042;-52
2022/04/01 12:20:32;;;;;;;3.30;1.70;;;3.00;99.90;;;;;;5037347;28;20029;-54
2022/04/01 12:22:59;;;;;;;3.50;2.00;;;2.90;99.90;;;;;;5043784;28;20025;-52
2022/04/01 12:25:27;;;;;;;2.95;1.95;;;2.80;99.90;;;;;;5034088;28;20099;-58
2022/04/01 12:27:57;;;;;;;3.13;1.77;;;2.80;99.90;;;;;;5041579;28;20118;-55
2022/04/01 12:30:30;;;;;;;2.10;1.88;;;2.80;99.90;;;;;;5043388;28;20025;-55
2022/04/01 12:32:58;;;;;;;4.43;2.40;;;2.90;99.90;;;;;;5039929;28;20359;-55
2022/04/01 12:35:24;;;;;;;6.82;2.95;;;3.20;99.90;;;;;;5040214;28;20427;-53
2022/04/01 12:38:10;;;;;;;3.65;2.35;;;3.40;99.90;;;;;;5040588;28;20030;-57
2022/04/01 12:40:45;;;;;;;6.57;2.40;;;3.60;99.90;;;;;;5043578;28;20043;-56
2022/04/01 12:43:29;;;;;;;2.72;1.83;;;3.70;99.90;;;;;;5044216;28;20036;-54
2022/04/01 12:46:08;;;;;;;;;;;3.70;99.90;;;;;;5022839;28;20500;-54
2022/04/01 12:48:45;;;;;;;2.88;2.05;;;3.50;99.90;;;;;;5037159;28;19909;-54
2022/04/01 12:51:20;;;;;;;4.05;2.28;;;3.40;99.90;;;;;;5041302;28;20017;-55
2022/04/01 12:53:53;;;;;;;2.50;1.95;;;3.30;99.90;;;;;;5051509;28;20033;-56
2022/04/01 12:56:23;;;;;;;2.53;2.17;;;3.20;99.90;;;;;;5045835;28;20090;-56
2022/04/01 12:58:49;;;;;;;4.03;2.40;;;3.20;99.90;;;;;;5035259;28;20093;-50
2022/04/01 13:01:25;;;;;;;3.05;2.05;;;3.00;99.90;;;;;;5041055;28;20037;-54
2022/04/01 13:03:52;;;;;;;3.72;2.15;;;3.00;99.90;;;;;;5036924;28;20079;-55
2022/04/01 13:06:18;;;;;;;4.13;2.20;;;3.00;99.90;;;;;;5044651;28;20021;-56
2022/04/01 13:08:44;;;;;;;3.72;2.60;;;2.90;99.90;;;;;;5046293;28;20017;-56
2022/04/01 13:11:15;;;;;;;3.97;2.47;;;2.80;99.90;;;;;;5042838;28;20384;-58
2022/04/01 13:13:51;;;;;;;3.85;2.38;;;2.70;99.90;;;;;;5039332;28;20060;-58
2022/04/01 13:16:16;;;;;;;4.32;2.63;;;2.80;99.90;;;;;;5044088;28;20033;-53
2022/04/01 13:18:41;;;;;;;3.42;2.15;;;3.00;99.90;;;;;;5040536;28;20072;-58
2022/04/01 13:21:07;;;;;;;5.30;2.70;;;3.10;99.90;;;;;;5041542;28;20055;-55